LFMI 181700Z AUTO 33010KT CAVOK 26/14 Q1009 TEMPO VRB15G30KT 4000 -TSRA SCT050CB

ElémentsDécodage
LFMI Station météo située sur l'aérodrome de ISTRES Le-Tubé
181700Z émis le 18 du mois à 17h00 UTC
AUTO Bulletin édité par un automate
33010KT vent du 330°, 10 noeuds
CAVOK Ceiling And Visibility OK
- Visibilité de 10 Km ou plus
- Pas de nuage au-dessous de 1500m ou au-dessous de l'altitude minimale du secteur la plus élevée (si>1500m) et absence de CB
- pas de temps présent significatif
26/14 température 26°C, point de rosée 14°C
 soit une humidité relative de 48%
Q1009 la pression au niveau de la mer (QNH) est de 1009 hPa
TEMPO fluctuation temporaire prévue
VRB15G30KT vent de direction variable, moyenne: 15 noeuds, avec rafales à 30 noeuds
4000 visibilité horizontale de 4000 mètres
-TSRA faible pluie d'orage
SCT050CB nuages épars (3/8 à 4/8) à 5000 pieds
 présence de cumulonimbus